Time;durP1;ratioP1;P1;durP2;ratioP2;P2;SDS_P1;SDS_P2;PMS_P1;PMS_P2;Temp;Humidity;BMP_temperature;BMP_pressure;BME280_temperature;BME280_humidity;BME280_pressure;Samples;Min_cycle;Max_cycle;Signal;HPM_P1;HPM_P2
2023/02/07 00:00:31;;;;;;;14.10;13.75;;;-0.60;96.80;;;;;;4205218;28;20120;-91
2023/02/07 00:02:54;;;;;;;24.38;23.58;;;-0.70;97.00;;;;;;4203227;28;20052;-91
2023/02/07 00:05:14;;;;;;;19.60;18.90;;;-0.80;97.30;;;;;;4210189;28;20067;-90
2023/02/07 00:07:34;;;;;;;12.60;12.20;;;-0.80;97.20;;;;;;4197766;28;20268;-91
2023/02/07 00:09:56;;;;;;;18.08;17.73;;;-0.80;97.20;;;;;;4211928;28;20124;-91
2023/02/07 00:12:16;;;;;;;19.83;19.33;;;-0.90;97.40;;;;;;4203253;28;20047;-91
2023/02/07 00:14:36;;;;;;;15.38;14.57;;;-0.80;97.30;;;;;;4210074;28;20052;-91
2023/02/07 00:16:56;;;;;;;24.13;23.30;;;-0.80;97.20;;;;;;4196571;28;20055;-91
2023/02/07 00:19:16;;;;;;;28.27;27.40;;;-0.80;97.20;;;;;;4211902;28;20099;-90
2023/02/07 00:21:36;;;;;;;26.40;25.63;;;-0.80;97.40;;;;;;4216692;28;20434;-90
2023/02/07 00:23:57;;;;;;;21.63;20.88;;;-0.80;97.30;;;;;;4217915;28;20042;-91
2023/02/07 00:26:19;;;;;;;17.77;16.98;;;-0.60;97.10;;;;;;4208273;28;20079;-91
2023/02/07 00:28:40;;;;;;;27.65;26.35;;;-0.60;96.90;;;;;;4214442;28;20112;-90
2023/02/07 00:31:11;;;;;;;30.65;29.45;;;-0.70;97.20;;;;;;4212590;28;20071;-91
2023/02/07 00:33:31;;;;;;;32.90;31.85;;;-0.50;96.90;;;;;;4206717;28;20088;-91
2023/02/07 00:35:59;;;;;;;33.45;32.45;;;-0.70;97.30;;;;;;4201240;28;20052;-91
2023/02/07 00:38:19;;;;;;;30.50;29.40;;;-0.90;97.60;;;;;;4211511;28;20078;-90
2023/02/07 00:40:39;;;;;;;28.67;27.88;;;-1.10;97.90;;;;;;4201188;28;20070;-91
2023/02/07 00:42:58;;;;;;;26.52;25.63;;;-1.00;98.00;;;;;;4205863;28;20052;-91
2023/02/07 00:45:19;;;;;;;28.33;27.40;;;-1.00;97.80;;;;;;4203784;28;20287;-91
2023/02/07 00:47:39;;;;;;;31.00;29.70;;;-0.60;97.40;;;;;;4213504;28;20074;-91
2023/02/07 00:49:59;;;;;;;34.17;32.67;;;-0.70;97.50;;;;;;4214850;28;20146;-91
2023/02/07 00:52:19;;;;;;;32.97;31.98;;;-0.80;97.90;;;;;;4219128;28;20047;-91
2023/02/07 00:54:40;;;;;;;36.97;35.70;;;-0.90;98.00;;;;;;4217551;28;20090;-91
2023/02/07 00:56:59;;;;;;;38.03;36.78;;;-1.00;98.20;;;;;;4210548;28;20248;-92
2023/02/07 00:59:19;;;;;;;38.22;37.08;;;-0.70;97.30;;;;;;4207445;28;20371;-91
2023/02/07 01:01:39;;;;;;;32.70;31.77;;;-0.40;97.00;;;;;;4213319;28;20043;-91
2023/02/07 01:03:59;;;;;;;34.45;33.15;;;-0.40;96.90;;;;;;4198686;28;20079;-91
2023/02/07 01:06:20;;;;;;;31.70;30.30;;;-0.50;97.20;;;;;;4216340;28;20450;-91
2023/02/07 01:08:40;;;;;;;35.05;33.53;;;-0.70;97.30;;;;;;4211919;28;20040;-90
2023/02/07 01:11:05;;;;;;;36.30;34.88;;;-0.60;97.20;;;;;;4214751;28;20047;-91
2023/02/07 01:13:25;;;;;;;36.25;34.75;;;-0.50;97.20;;;;;;4218179;28;20113;-91
2023/02/07 01:15:47;;;;;;;33.28;32.15;;;-0.60;97.30;;;;;;4211918;28;20047;-91
2023/02/07 01:18:08;;;;;;;28.92;27.92;;;-0.70;97.40;;;;;;4206147;28;20247;-91
2023/02/07 01:20:28;;;;;;;28.60;27.67;;;-0.90;97.70;;;;;;4204119;28;20100;-91
2023/02/07 01:22:48;;;;;;;27.92;27.02;;;-0.90;97.90;;;;;;4208118;28;20263;-91
2023/02/07 01:25:09;;;;;;;24.08;23.48;;;-0.90;97.90;;;;;;4207144;28;20131;-91
2023/02/07 01:27:29;;;;;;;26.02;25.13;;;-1.00;97.90;;;;;;4198225;28;20075;-91
2023/02/07 01:29:49;;;;;;;27.75;27.08;;;-1.00;98.00;;;;;;4198788;28;20156;-91
2023/02/07 01:32:09;;;;;;;29.10;28.20;;;-1.00;98.00;;;;;;4214142;28;20090;-91
2023/02/07 01:34:29;;;;;;;28.42;27.60;;;-1.10;98.70;;;;;;4198182;28;20047;-91
2023/02/07 01:36:49;;;;;;;29.48;28.38;;;-1.10;98.80;;;;;;4202014;28;20087;-91
2023/02/07 01:39:08;;;;;;;32.45;31.45;;;-1.20;99.00;;;;;;4214543;28;20047;-90
2023/02/07 01:41:28;;;;;;;30.08;29.27;;;-1.30;99.10;;;;;;4200039;28;20056;-90
2023/02/07 01:44:21;;;;;;;28.02;27.13;;;-1.30;98.90;;;;;;4197339;28;20051;-91
2023/02/07 01:46:42;;;;;;;17.50;17.02;;;-1.20;99.00;;;;;;4187984;28;20055;-91
2023/02/07 01:49:08;;;;;;;22.98;22.40;;;-1.20;98.90;;;;;;4202666;28;20074;-90
2023/02/07 01:51:30;;;;;;;23.95;23.35;;;-1.10;98.80;;;;;;4203673;28;20293;-91
2023/02/07 01:53:54;;;;;;;32.97;31.88;;;-1.10;99.00;;;;;;4211990;28;20047;-91
2023/02/07 01:56:15;;;;;;;34.20;33.00;;;-1.20;99.00;;;;;;4214986;28;20062;-91
2023/02/07 01:58:51;;;;;;;35.05;33.85;;;-1.10;99.30;;;;;;4216182;28;20051;-90
2023/02/07 02:01:19;;;;;;;34.90;33.53;;;-1.10;99.30;;;;;;4214845;28;20102;-90
2023/02/07 02:03:45;;;;;;;33.95;32.75;;;-1.20;99.50;;;;;;4199419;28;20048;-92
2023/02/07 02:06:06;;;;;;;33.05;32.15;;;-1.20;99.30;;;;;;4208583;28;20055;-90
2023/02/07 02:08:26;;;;;;;35.92;34.72;;;-1.20;99.30;;;;;;4214415;28;20046;-91
2023/02/07 02:11:20;;;;;;;31.48;30.42;;;-1.20;99.60;;;;;;4213448;28;20128;-92
2023/02/07 02:13:58;;;;;;;;;;;-1.20;99.60;;;;;;4215376;28;20047;-91
2023/02/07 02:16:30;;;;;;;28.80;27.92;;;-1.30;99.60;;;;;;4213682;28;19967;-92
2023/02/07 02:19:32;;;;;;;33.83;32.67;;;-1.30;99.90;;;;;;4212730;28;20082;-91
2023/02/07 02:22:21;;;;;;;37.33;35.22;;;-0.30;98.70;;;;;;4184043;28;20063;-91
2023/02/07 02:25:18;;;;;;;37.20;35.38;;;-0.50;98.30;;;;;;4214956;28;20055;-91
2023/02/07 02:27:59;;;;;;;28.55;26.95;;;-0.60;98.80;;;;;;4213620;28;20401;-91
2023/02/07 02:30:38;;;;;;;31.75;30.77;;;-0.70;98.80;;;;;;4213114;28;20109;-91
2023/02/07 02:33:17;;;;;;;28.70;27.52;;;-0.80;99.10;;;;;;4211079;28;20050;-91
2023/02/07 02:35:52;;;;;;;19.25;18.63;;;-0.80;99.30;;;;;;4213004;28;20074;-90
2023/02/07 02:38:17;;;;;;;24.52;23.33;;;-0.80;99.40;;;;;;4192903;28;20374;-91
2023/02/07 02:40:48;;;;;;;12.52;12.23;;;-0.90;99.20;;;;;;4201227;28;20052;-90
2023/02/07 02:43:52;;;;;;;13.43;13.13;;;-0.80;99.00;;;;;;4195487;28;20043;-91
2023/02/07 02:46:33;;;;;;;8.93;8.73;;;-0.80;99.40;;;;;;4215955;28;20362;-91
2023/02/07 02:48:55;;;;;;;9.25;9.13;;;-0.70;99.40;;;;;;4213887;28;20063;-91
2023/02/07 02:51:15;;;;;;;10.45;10.15;;;-0.70;99.20;;;;;;4210662;28;20112;-91
2023/02/07 02:53:34;;;;;;;11.07;10.95;;;-0.80;99.40;;;;;;4216028;28;20047;-91
2023/02/07 02:56:28;;;;;;;10.70;10.50;;;-0.80;99.30;;;;;;4205363;28;20116;-91
2023/02/07 02:58:59;;;;;;;9.32;9.02;;;-0.80;99.30;;;;;;4194920;28;20275;-91
2023/02/07 03:01:45;;;;;;;10.43;10.25;;;-0.80;99.40;;;;;;4210847;28;20370;-90
2023/02/07 03:04:19;;;;;;;10.68;10.30;;;-0.90;99.80;;;;;;4201979;28;20051;-90
2023/02/07 03:06:43;;;;;;;10.52;10.18;;;-0.90;99.60;;;;;;4210268;28;20043;-91
2023/02/07 03:09:43;;;;;;;11.77;11.57;;;-0.80;99.70;;;;;;4203740;28;20078;-90
2023/02/07 03:12:21;;;;;;;13.48;13.07;;;-0.10;99.00;;;;;;4214042;28;20425;-91
2023/02/07 03:15:16;;;;;;;14.30;13.85;;;-0.40;98.90;;;;;;4212672;28;20059;-91
2023/02/07 03:17:56;;;;;;;14.68;14.48;;;-0.60;99.30;;;;;;4213978;28;20044;-91
2023/02/07 03:20:34;;;;;;;14.07;13.75;;;-0.60;99.40;;;;;;4205974;28;20503;-91
2023/02/07 03:22:57;;;;;;;11.63;11.13;;;-0.60;99.20;;;;;;4213277;28;20067;-90
2023/02/07 03:25:20;;;;;;;9.82;9.73;;;-0.60;99.20;;;;;;4210593;28;20182;-91
2023/02/07 03:27:41;;;;;;;10.85;10.65;;;-0.60;99.30;;;;;;4195251;28;20067;-91
2023/02/07 03:30:07;;;;;;;10.50;10.20;;;-0.70;99.40;;;;;;4214199;28;20235;-91
2023/02/07 03:32:37;;;;;;;9.77;9.57;;;-0.70;99.50;;;;;;4197397;28;20112;-91
2023/02/07 03:35:13;;;;;;;10.45;10.35;;;-0.90;99.80;;;;;;4206370;28;20139;-91
2023/02/07 03:37:44;;;;;;;11.05;10.95;;;-0.80;99.40;;;;;;4214394;28;20051;-91
2023/02/07 03:40:05;;;;;;;11.40;11.10;;;-0.90;99.70;;;;;;4201342;28;20363;-91
2023/02/07 03:42:32;;;;;;;12.07;11.73;;;-1.10;99.90;;;;;;4198932;28;20048;-90
2023/02/07 03:44:54;;;;;;;15.98;15.65;;;-1.30;99.90;;;;;;4196820;28;20047;-91
2023/02/07 03:47:17;;;;;;;13.48;12.57;;;-1.30;99.90;;;;;;4208042;28;20085;-92
2023/02/07 03:49:37;;;;;;;13.05;12.70;;;-1.30;99.90;;;;;;4200951;28;20095;-90
2023/02/07 03:51:57;;;;;;;12.55;12.35;;;-1.20;99.90;;;;;;4215703;28;20330;-91
2023/02/07 03:54:17;;;;;;;15.15;14.90;;;-1.00;99.70;;;;;;4195410;28;20091;-91
2023/02/07 03:56:37;;;;;;;19.27;18.77;;;-1.00;99.70;;;;;;4211454;28;20130;-91
2023/02/07 03:58:57;;;;;;;27.75;26.95;;;-1.00;99.80;;;;;;4199847;28;20239;-90
2023/02/07 04:01:17;;;;;;;30.98;30.13;;;-1.10;99.90;;;;;;4208621;28;20066;-90
2023/02/07 04:03:37;;;;;;;28.48;27.70;;;-1.20;99.90;;;;;;4215179;28;20251;-90
2023/02/07 04:05:57;;;;;;;26.27;25.30;;;-1.30;99.90;;;;;;4216533;28;20272;-92
2023/02/07 04:08:17;;;;;;;29.40;28.63;;;-1.30;99.90;;;;;;4206781;28;20043;-91
2023/02/07 04:10:36;;;;;;;31.88;30.67;;;-1.20;99.90;;;;;;4213565;28;20055;-90
2023/02/07 04:12:56;;;;;;;34.75;33.70;;;-1.10;99.90;;;;;;4210370;28;20097;-91
2023/02/07 04:15:17;;;;;;;32.85;31.95;;;-1.10;99.90;;;;;;4199600;28;20092;-91
2023/02/07 04:17:37;;;;;;;29.80;28.98;;;-1.20;99.90;;;;;;4214502;28;20116;-90
2023/02/07 04:20:00;;;;;;;27.15;26.25;;;-1.30;99.90;;;;;;4207372;28;20119;-91
2023/02/07 04:22:20;;;;;;;16.08;15.65;;;-1.30;99.90;;;;;;4211592;28;20047;-91
2023/02/07 04:24:40;;;;;;;23.92;23.15;;;-1.40;99.90;;;;;;4206450;28;20083;-91
2023/02/07 04:27:00;;;;;;;28.65;27.65;;;-1.10;99.90;;;;;;4217645;28;20058;-91
2023/02/07 04:29:20;;;;;;;32.33;31.42;;;-1.00;99.90;;;;;;4210364;28;20306;-90
2023/02/07 04:31:41;;;;;;;24.25;23.52;;;-0.70;99.30;;;;;;4220326;28;20047;-91
2023/02/07 04:34:01;;;;;;;13.55;12.98;;;-0.70;99.50;;;;;;4198474;28;20075;-91
2023/02/07 04:36:21;;;;;;;21.98;21.27;;;-0.80;99.60;;;;;;4204839;28;20048;-91
2023/02/07 04:38:42;;;;;;;30.00;29.10;;;-0.90;99.90;;;;;;4213206;28;20248;-91
2023/02/07 04:41:03;;;;;;;24.67;23.92;;;-1.00;99.90;;;;;;4201908;28;20079;-90
2023/02/07 04:43:23;;;;;;;25.77;24.70;;;-1.10;99.90;;;;;;4199549;28;20358;-91
2023/02/07 04:45:47;;;;;;;21.33;20.52;;;-1.20;99.90;;;;;;4211716;28;20043;-91
2023/02/07 04:48:07;;;;;;;;;;;-1.10;99.90;;;;;;4214072;28;20247;-90
2023/02/07 04:50:27;;;;;;;22.23;21.73;;;-1.10;99.90;;;;;;4212396;28;19949;-91
2023/02/07 04:52:47;;;;;;;24.42;23.67;;;-1.00;99.90;;;;;;4213627;28;20111;-91
2023/02/07 04:55:08;;;;;;;20.60;19.90;;;-1.00;99.90;;;;;;4218275;28;20043;-91
2023/02/07 04:57:28;;;;;;;20.73;20.15;;;-1.10;99.90;;;;;;4215207;28;20056;-90
2023/02/07 04:59:48;;;;;;;14.70;14.20;;;-1.10;99.90;;;;;;4205249;28;20074;-90
2023/02/07 05:02:08;;;;;;;19.60;19.25;;;-1.20;99.90;;;;;;4197270;28;20058;-91
2023/02/07 05:04:28;;;;;;;15.27;14.90;;;-1.20;99.90;;;;;;4198906;28;20319;-91
2023/02/07 05:06:48;;;;;;;22.13;21.42;;;-1.30;99.90;;;;;;4203853;28;20048;-91
2023/02/07 05:09:08;;;;;;;29.27;28.08;;;-1.20;99.90;;;;;;4214577;28;20104;-90
2023/02/07 05:11:28;;;;;;;14.80;13.88;;;-1.10;99.90;;;;;;4198786;28;20351;-91
2023/02/07 05:13:48;;;;;;;21.40;20.15;;;-1.10;99.90;;;;;;4199514;28;20401;-91
2023/02/07 05:16:08;;;;;;;30.13;29.23;;;-1.10;99.90;;;;;;4210448;28;20083;-91
2023/02/07 05:18:28;;;;;;;33.58;32.58;;;-1.10;99.90;;;;;;4209837;28;20059;-91
2023/02/07 05:20:51;;;;;;;33.60;32.55;;;-1.30;99.90;;;;;;4216349;28;20040;-91
2023/02/07 05:23:11;;;;;;;29.42;28.52;;;-1.40;99.90;;;;;;4198110;28;20036;-91
2023/02/07 05:25:32;;;;;;;30.67;29.38;;;-1.40;99.90;;;;;;4214207;28;20059;-91
2023/02/07 05:27:52;;;;;;;33.17;30.10;;;-1.20;99.90;;;;;;4200507;28;20096;-91
2023/02/07 05:30:12;;;;;;;33.17;32.08;;;-1.30;99.90;;;;;;4201326;28;20048;-90
2023/02/07 05:35:11;;;;;;;36.38;34.78;;;-1.30;99.90;;;;;;4215048;28;20047;-91
2023/02/07 05:37:31;;;;;;;40.80;39.05;;;-1.40;99.90;;;;;;4214306;28;20047;-91
2023/02/07 05:39:51;;;;;;;37.08;35.80;;;-1.50;99.90;;;;;;4216907;28;20108;-92
2023/02/07 05:42:10;;;;;;;38.83;37.63;;;-1.50;99.90;;;;;;4217964;28;20075;-91
2023/02/07 05:44:30;;;;;;;33.97;32.78;;;-1.30;99.90;;;;;;4216371;28;20039;-91
2023/02/07 05:46:50;;;;;;;32.42;31.17;;;-1.30;99.90;;;;;;4202734;28;20404;-90
2023/02/07 05:49:11;;;;;;;37.25;36.00;;;-1.30;99.90;;;;;;4213138;28;20240;-91
2023/02/07 05:51:31;;;;;;;32.90;31.65;;;-1.40;99.90;;;;;;4201880;28;20240;-90
2023/02/07 05:53:51;;;;;;;30.95;30.02;;;-1.40;99.90;;;;;;4206955;28;20056;-91
2023/02/07 05:56:11;;;;;;;29.50;28.25;;;-1.50;99.90;;;;;;4197007;28;20083;-91
2023/02/07 05:58:31;;;;;;;32.13;30.55;;;-1.70;99.90;;;;;;4211415;28;20083;-91
2023/02/07 06:00:53;;;;;;;30.10;28.13;;;-1.80;99.90;;;;;;4195375;28;20051;-91
2023/02/07 06:03:13;;;;;;;30.20;28.90;;;-1.80;99.90;;;;;;4212901;28;20039;-91
2023/02/07 06:05:34;;;;;;;33.67;32.47;;;-1.90;99.90;;;;;;4200435;28;20409;-92
2023/02/07 06:07:54;;;;;;;31.85;30.73;;;-1.80;99.90;;;;;;4209467;28;20081;-91
2023/02/07 06:10:14;;;;;;;37.05;35.88;;;-1.60;99.90;;;;;;4198513;28;20056;-91
2023/02/07 06:12:34;;;;;;;35.15;33.10;;;-1.30;99.90;;;;;;4204835;28;20147;-90
2023/02/07 06:14:53;;;;;;;25.08;24.08;;;-1.10;99.90;;;;;;4212986;28;20050;-92
2023/02/07 06:17:13;;;;;;;16.77;15.95;;;-1.20;99.90;;;;;;4214387;28;20043;-90
2023/02/07 06:19:32;;;;;;;23.55;22.70;;;-1.30;99.90;;;;;;4209488;28;20082;-91
2023/02/07 06:21:52;;;;;;;33.00;31.60;;;-1.30;99.90;;;;;;4212299;28;20051;-92
2023/02/07 06:24:14;;;;;;;22.35;21.05;;;-1.20;99.90;;;;;;4206952;28;20386;-89
2023/02/07 06:26:36;;;;;;;21.23;20.25;;;-1.30;99.90;;;;;;4215755;28;20043;-90
2023/02/07 06:28:55;;;;;;;35.92;33.13;;;-1.20;99.90;;;;;;4213672;28;20050;-91
2023/02/07 06:31:15;;;;;;;34.50;33.15;;;-1.30;99.90;;;;;;4217121;28;20070;-90
2023/02/07 06:33:35;;;;;;;22.00;21.42;;;-1.30;99.90;;;;;;4205592;28;20353;-90
2023/02/07 06:35:55;;;;;;;24.30;23.45;;;-1.10;99.90;;;;;;4210995;28;20063;-90
2023/02/07 06:38:16;;;;;;;20.25;19.42;;;-1.00;99.90;;;;;;4210335;28;20043;-91
2023/02/07 06:40:36;;;;;;;23.17;22.35;;;-1.00;99.90;;;;;;4198640;28;20044;-89
2023/02/07 06:42:55;;;;;;;35.25;33.40;;;-1.10;99.90;;;;;;4210823;28;20047;-90
2023/02/07 06:45:16;;;;;;;41.15;39.42;;;-1.20;99.90;;;;;;4198980;28;20466;-90
2023/02/07 06:47:35;;;;;;;38.85;37.10;;;-1.20;99.90;;;;;;4213669;28;20044;-89
2023/02/07 06:49:55;;;;;;;39.25;37.65;;;-1.20;99.90;;;;;;4201181;28;20055;-89
2023/02/07 06:52:14;;;;;;;41.63;39.58;;;-0.80;99.90;;;;;;4208626;28;20109;-89
2023/02/07 06:54:35;;;;;;;34.55;33.30;;;-0.90;99.90;;;;;;4213262;28;20390;-89
2023/02/07 06:56:54;;;;;;;36.70;34.85;;;-1.10;99.90;;;;;;4214008;28;20050;-89
2023/02/07 06:59:14;;;;;;;36.35;34.38;;;-1.20;99.90;;;;;;4201889;28;20036;-89
2023/02/07 07:01:34;;;;;;;31.40;30.13;;;-1.20;99.90;;;;;;4214929;28;20060;-89
2023/02/07 07:03:55;;;;;;;29.17;27.75;;;-1.10;99.90;;;;;;4216725;28;20090;-89
2023/02/07 07:06:14;;;;;;;19.75;19.20;;;-1.00;99.90;;;;;;4208003;28;20055;-89
2023/02/07 07:08:34;;;;;;;22.70;22.10;;;-0.90;99.90;;;;;;4204519;28;20044;-89
2023/02/07 07:10:55;;;;;;;15.68;15.27;;;-0.80;99.90;;;;;;4212354;28;20055;-89
2023/02/07 07:13:18;;;;;;;19.23;18.30;;;-0.80;99.90;;;;;;4217882;28;20098;-89
2023/02/07 07:15:38;;;;;;;23.90;22.55;;;-0.80;99.90;;;;;;4213807;28;20040;-89
2023/02/07 07:17:58;;;;;;;19.65;18.95;;;-0.80;99.90;;;;;;4199580;28;20130;-89
2023/02/07 07:20:18;;;;;;;16.13;15.52;;;-0.60;99.90;;;;;;4215935;28;20075;-89
2023/02/07 07:22:38;;;;;;;15.82;15.27;;;-0.30;99.50;;;;;;4213567;28;20059;-89
2023/02/07 07:24:58;;;;;;;20.15;18.77;;;-0.20;99.30;;;;;;4203427;28;20067;-89
2023/02/07 07:27:17;;;;;;;17.65;16.67;;;-0.30;99.60;;;;;;4215355;28;20048;-89
2023/02/07 07:29:37;;;;;;;11.93;11.35;;;-0.30;99.70;;;;;;4196033;28;20052;-89
2023/02/07 07:31:57;;;;;;;13.25;12.50;;;-0.40;99.90;;;;;;4214093;28;20323;-89
2023/02/07 07:34:17;;;;;;;13.68;13.07;;;-0.40;99.90;;;;;;4203750;28;20421;-89
2023/02/07 07:36:37;;;;;;;13.57;13.20;;;-0.50;99.90;;;;;;4209869;28;20055;-89
2023/02/07 07:38:57;;;;;;;15.07;14.48;;;-0.30;99.90;;;;;;4209604;28;20370;-89
2023/02/07 07:41:17;;;;;;;12.73;12.13;;;-0.20;99.90;;;;;;4214138;28;20047;-89
2023/02/07 07:43:37;;;;;;;12.18;11.93;;;0.10;99.30;;;;;;4211708;28;20278;-89
2023/02/07 07:46:01;;;;;;;20.58;19.98;;;0.30;98.40;;;;;;4218821;28;20047;-89
2023/02/07 07:48:22;;;;;;;13.00;12.68;;;0.30;98.70;;;;;;4210439;28;20443;-89
2023/02/07 07:50:42;;;;;;;12.95;11.98;;;0.20;98.80;;;;;;4209144;28;20055;-89
2023/02/07 07:53:02;;;;;;;14.25;13.48;;;0.40;98.50;;;;;;4212957;28;20366;-89
2023/02/07 07:55:22;;;;;;;14.57;13.57;;;0.30;98.80;;;;;;4210856;28;20227;-89
2023/02/07 07:57:42;;;;;;;19.08;17.17;;;0.30;99.20;;;;;;4204443;28;20148;-89
2023/02/07 08:00:03;;;;;;;20.23;18.60;;;0.20;99.80;;;;;;4210882;28;20051;-89
2023/02/07 08:02:23;;;;;;;11.35;10.85;;;0.10;99.90;;;;;;4205214;28;20069;-89
2023/02/07 08:04:43;;;;;;;14.52;13.50;;;0.20;99.60;;;;;;4210520;28;20067;-89
2023/02/07 08:07:03;;;;;;;14.13;13.00;;;0.30;99.90;;;;;;4203704;28;20098;-89
2023/02/07 08:09:24;;;;;;;13.90;13.20;;;0.30;99.90;;;;;;4193439;28;20055;-89
2023/02/07 08:11:44;;;;;;;9.48;9.13;;;0.40;99.90;;;;;;4206105;28;20393;-89
2023/02/07 08:14:03;;;;;;;8.88;8.57;;;0.50;99.50;;;;;;4215260;28;20085;-89
2023/02/07 08:16:24;;;;;;;8.63;8.43;;;0.60;99.00;;;;;;4199701;28;20071;-89
2023/02/07 08:18:44;;;;;;;11.07;10.65;;;0.70;98.90;;;;;;4197419;28;20240;-89
2023/02/07 08:21:04;;;;;;;11.35;10.85;;;0.70;98.90;;;;;;4213695;28;20077;-89
2023/02/07 08:23:24;;;;;;;9.60;9.15;;;0.80;99.20;;;;;;4211520;28;20047;-89
2023/02/07 08:25:45;;;;;;;11.50;10.93;;;0.80;99.10;;;;;;4211560;28;20047;-89
2023/02/07 08:28:05;;;;;;;7.57;7.38;;;0.90;98.90;;;;;;4210994;28;20066;-89
2023/02/07 08:30:26;;;;;;;10.65;10.23;;;1.00;98.80;;;;;;4215790;28;20086;-89
2023/02/07 08:32:46;;;;;;;9.85;9.25;;;1.10;99.00;;;;;;4198234;28;20425;-89
2023/02/07 08:35:07;;;;;;;10.13;9.73;;;1.30;99.00;;;;;;4205232;28;20090;-89
2023/02/07 08:37:27;;;;;;;10.73;10.38;;;1.30;98.40;;;;;;4207746;28;20063;-89
2023/02/07 08:39:51;;;;;;;10.70;10.35;;;1.50;98.20;;;;;;4209842;28;20058;-89
2023/02/07 08:42:11;;;;;;;15.15;13.85;;;1.60;97.90;;;;;;4209083;28;20112;-89
2023/02/07 08:44:31;;;;;;;8.63;8.32;;;1.60;97.90;;;;;;4212799;28;20161;-89
2023/02/07 08:46:51;;;;;;;15.93;14.55;;;1.60;97.50;;;;;;4215817;28;20047;-89
2023/02/07 08:49:10;;;;;;;10.15;9.85;;;1.60;97.90;;;;;;4200483;28;20040;-88
2023/02/07 08:51:30;;;;;;;9.73;9.20;;;1.70;97.70;;;;;;4213689;28;20062;-89
2023/02/07 08:53:50;;;;;;;10.73;10.27;;;1.70;97.80;;;;;;4200385;28;20059;-89
2023/02/07 08:56:09;;;;;;;10.20;9.70;;;1.70;98.10;;;;;;4209734;28;20452;-89
2023/02/07 08:58:30;;;;;;;12.13;11.52;;;1.70;98.10;;;;;;4197133;28;20094;-89
2023/02/07 09:00:50;;;;;;;14.75;13.52;;;1.70;98.20;;;;;;4212068;28;20043;-89
2023/02/07 09:03:10;;;;;;;11.48;10.90;;;1.70;98.00;;;;;;4201307;28;20037;-89
2023/02/07 09:05:32;;;;;;;10.05;9.43;;;1.80;98.30;;;;;;4217291;28;20242;-89
2023/02/07 09:07:53;;;;;;;13.02;12.40;;;1.80;98.00;;;;;;4215494;28;20274;-89
2023/02/07 09:10:14;;;;;;;9.88;9.68;;;1.70;98.00;;;;;;4199755;28;20127;-88
2023/02/07 09:12:34;;;;;;;10.27;9.93;;;1.80;98.50;;;;;;4202784;28;20421;-89
2023/02/07 09:14:54;;;;;;;15.52;14.05;;;1.80;98.20;;;;;;4212166;28;20111;-89
2023/02/07 09:17:15;;;;;;;10.38;9.90;;;2.00;98.50;;;;;;4207797;28;20445;-89
2023/02/07 09:19:36;;;;;;;9.25;8.90;;;2.20;98.50;;;;;;4209928;28;20039;-89
2023/02/07 09:21:56;;;;;;;10.63;10.00;;;2.30;97.50;;;;;;4206136;28;20082;-89
2023/02/07 09:24:16;;;;;;;13.52;12.77;;;2.20;98.00;;;;;;4198584;28;20044;-89
2023/02/07 09:26:37;;;;;;;14.90;13.57;;;2.30;98.00;;;;;;4213137;28;20313;-89
2023/02/07 09:28:58;;;;;;;10.88;10.48;;;2.20;98.30;;;;;;4217891;28;20333;-89
2023/02/07 09:31:18;;;;;;;8.88;8.65;;;2.30;98.20;;;;;;4214902;28;20147;-89
2023/02/07 09:33:38;;;;;;;8.15;7.95;;;2.20;97.40;;;;;;4209138;28;20086;-89
2023/02/07 09:35:57;;;;;;;7.95;7.85;;;2.40;97.60;;;;;;4205005;28;20244;-89
2023/02/07 09:38:24;;;;;;;8.48;8.18;;;2.60;97.30;;;;;;4205949;28;20163;-89
2023/02/07 09:40:46;;;;;;;7.55;7.35;;;2.70;96.60;;;;;;4207003;28;20036;-89
2023/02/07 09:43:16;;;;;;;8.55;8.45;;;2.70;96.70;;;;;;4200024;28;20046;-89
2023/02/07 09:45:41;;;;;;;6.30;6.20;;;2.80;95.80;;;;;;4197086;28;20056;-89
2023/02/07 09:48:06;;;;;;;7.82;7.68;;;2.70;95.80;;;;;;4209407;28;20048;-89
2023/02/07 09:50:35;;;;;;;8.48;8.20;;;2.80;95.80;;;;;;4198809;28;20079;-89
2023/02/07 09:53:02;;;;;;;6.28;5.93;;;3.00;96.70;;;;;;4215725;28;20112;-90
2023/02/07 09:55:24;;;;;;;8.20;7.90;;;3.30;97.60;;;;;;4217784;28;20078;-89
2023/02/07 09:57:49;;;;;;;8.90;8.55;;;3.40;96.00;;;;;;4214094;28;20047;-89
2023/02/07 10:00:25;;;;;;;7.68;7.43;;;3.30;95.80;;;;;;4210144;28;20224;-89
2023/02/07 10:03:12;;;;;;;8.35;8.00;;;3.50;96.10;;;;;;4207114;28;20051;-89
2023/02/07 10:05:42;;;;;;;8.30;7.95;;;3.40;95.60;;;;;;4214940;28;20068;-89
2023/02/07 10:08:03;;;;;;;7.47;7.03;;;3.30;95.60;;;;;;4199640;28;20105;-89
2023/02/07 10:10:36;;;;;;;8.05;7.95;;;3.30;95.90;;;;;;4200032;28;20090;-89
2023/02/07 10:13:16;;;;;;;8.52;8.43;;;3.20;95.60;;;;;;4214468;28;20075;-89
2023/02/07 10:15:56;;;;;;;8.10;7.93;;;3.20;96.20;;;;;;4214339;28;20048;-89
2023/02/07 10:18:43;;;;;;;8.73;8.43;;;3.20;96.00;;;;;;4215101;28;20062;-91
2023/02/07 10:21:28;;;;;;;8.05;7.85;;;3.40;96.00;;;;;;4198878;28;20050;-90
2023/02/07 10:24:08;;;;;;;8.63;8.30;;;3.50;95.50;;;;;;4212665;28;20043;-90
2023/02/07 10:26:57;;;;;;;8.75;8.40;;;3.70;96.40;;;;;;4215133;28;20270;-89
2023/02/07 10:29:26;;;;;;;8.07;7.88;;;3.90;95.60;;;;;;4220182;28;20095;-90
2023/02/07 10:31:50;;;;;;;7.60;7.40;;;4.00;95.10;;;;;;4199142;28;20066;-89
2023/02/07 10:34:20;;;;;;;7.38;7.28;;;4.00;95.60;;;;;;4196102;28;20052;-89
2023/02/07 10:36:44;;;;;;;7.00;6.90;;;4.20;95.00;;;;;;4196454;28;20104;-89
2023/02/07 10:39:17;;;;;;;7.72;7.50;;;4.30;95.10;;;;;;4214304;28;20039;-89
2023/02/07 10:41:39;;;;;;;6.57;6.32;;;4.60;95.20;;;;;;4213447;28;20067;-89
2023/02/07 10:43:59;;;;;;;7.47;6.95;;;4.10;95.00;;;;;;4196483;28;20058;-89
2023/02/07 10:46:21;;;;;;;8.85;8.55;;;4.20;95.20;;;;;;4213105;28;20047;-89
2023/02/07 10:48:41;;;;;;;7.40;7.30;;;4.60;96.00;;;;;;4212270;28;20044;-89
2023/02/07 10:51:25;;;;;;;10.65;9.57;;;4.60;94.20;;;;;;4209666;28;20394;-91
2023/02/07 10:53:48;;;;;;;10.55;9.80;;;4.80;94.60;;;;;;4198486;28;20398;-90
2023/02/07 10:56:20;;;;;;;8.13;7.82;;;5.20;94.20;;;;;;4213739;28;20048;-90
2023/02/07 10:58:40;;;;;;;7.60;6.97;;;4.90;93.70;;;;;;4205965;28;20062;-90
2023/02/07 11:01:00;;;;;;;8.48;8.13;;;5.00;94.20;;;;;;4216018;28;20062;-90
2023/02/07 11:03:23;;;;;;;6.22;6.03;;;5.00;93.70;;;;;;4212544;28;20292;-90
2023/02/07 11:05:55;;;;;;;10.82;7.60;;;4.70;93.60;;;;;;4205825;28;20052;-90
2023/02/07 11:08:21;;;;;;;8.85;8.32;;;4.30;94.50;;;;;;4214404;28;20071;-89
2023/02/07 11:10:43;;;;;;;9.00;8.60;;;4.60;94.70;;;;;;4210606;28;20039;-90
2023/02/07 11:13:10;;;;;;;6.68;6.28;;;4.80;94.10;;;;;;4211321;28;20099;-91
2023/02/07 11:15:37;;;;;;;6.53;6.32;;;4.90;93.90;;;;;;4210337;28;20044;-89
2023/02/07 11:17:57;;;;;;;7.13;6.93;;;4.50;93.30;;;;;;4196566;28;20369;-90
2023/02/07 11:20:32;;;;;;;7.00;6.80;;;4.80;93.90;;;;;;4200738;28;20087;-89
2023/02/07 11:22:56;;;;;;;8.38;8.07;;;4.70;93.00;;;;;;4217782;28;20248;-91
2023/02/07 11:25:16;;;;;;;7.97;7.78;;;4.50;93.30;;;;;;4205834;28;20051;-90
2023/02/07 11:27:39;;;;;;;8.10;7.88;;;4.50;93.50;;;;;;4211765;28;20135;-90
2023/02/07 11:30:21;;;;;;;8.13;7.82;;;4.60;93.30;;;;;;4206021;28;20074;-89
2023/02/07 11:32:42;;;;;;;6.45;6.35;;;4.70;92.80;;;;;;4212881;28;20362;-89
2023/02/07 11:35:08;;;;;;;7.63;7.43;;;4.80;93.00;;;;;;4205892;28;20077;-90
2023/02/07 11:37:47;;;;;;;7.43;7.22;;;4.90;92.80;;;;;;4210927;28;20370;-90
2023/02/07 11:40:19;;;;;;;7.30;7.03;;;5.40;93.10;;;;;;4197063;28;20132;-91
2023/02/07 11:42:40;;;;;;;6.20;6.10;;;5.30;92.30;;;;;;4198495;28;20051;-90
2023/02/07 11:45:04;;;;;;;6.50;6.40;;;5.20;91.90;;;;;;4214523;28;20043;-89
2023/02/07 11:47:27;;;;;;;6.90;6.35;;;4.90;91.90;;;;;;4199821;28;20048;-90
2023/02/07 11:49:57;;;;;;;7.32;7.00;;;4.70;92.30;;;;;;4199796;28;20055;-90
2023/02/07 11:52:18;;;;;;;8.02;7.22;;;4.70;92.50;;;;;;4196464;28;20180;-90
2023/02/07 11:54:39;;;;;;;7.05;6.95;;;4.60;92.70;;;;;;4199968;28;20059;-90
2023/02/07 11:57:06;;;;;;;8.20;7.85;;;4.40;92.80;;;;;;4206860;28;20047;-90
2023/02/07 11:59:32;;;;;;;6.97;6.78;;;4.40;93.10;;;;;;4210456;28;20075;-90
2023/02/07 12:01:56;;;;;;;8.18;7.68;;;4.50;92.70;;;;;;4215749;28;20051;-90
2023/02/07 12:04:19;;;;;;;8.23;7.88;;;4.50;92.80;;;;;;4193051;28;20239;-90
2023/02/07 12:06:55;;;;;;;7.53;6.95;;;4.00;92.90;;;;;;4193768;28;20052;-90
2023/02/07 12:09:42;;;;;;;7.88;7.68;;;4.50;93.30;;;;;;4198492;28;20043;-90
2023/02/07 12:12:06;;;;;;;8.13;7.63;;;4.70;92.90;;;;;;4213956;28;20068;-90
2023/02/07 12:14:37;;;;;;;8.27;8.13;;;4.50;92.50;;;;;;4210708;28;20046;-90
2023/02/07 12:16:59;;;;;;;7.80;7.57;;;4.90;92.30;;;;;;4216345;28;20082;-90
2023/02/07 12:19:48;;;;;;;6.30;6.18;;;4.60;92.00;;;;;;4221553;28;20051;-93
2023/02/07 12:22:19;;;;;;;7.28;7.07;;;4.60;92.10;;;;;;4204357;28;20055;-92
2023/02/07 12:24:47;;;;;;;8.32;8.13;;;4.30;92.10;;;;;;4212488;28;20043;-93